sensor_id;sensor_type;location;lat;lon;timestamp;P1;durP1;ratioP1;P2;durP2;ratioP2
52440;SDS011;39611;46.062;8.950;2023-03-21T00:00:22;36.58;;;13.43;;
52440;SDS011;39611;46.062;8.950;2023-03-21T00:02:49;34.67;;;15.20;;
52440;SDS011;39611;46.062;8.950;2023-03-21T00:05:16;38.90;;;15.85;;
52440;SDS011;39611;46.062;8.950;2023-03-21T00:07:42;35.70;;;15.35;;
52440;SDS011;39611;46.062;8.950;2023-03-21T00:10:09;40.17;;;16.50;;
52440;SDS011;39611;46.062;8.950;2023-03-21T00:12:43;39.03;;;15.10;;
52440;SDS011;39611;46.062;8.950;2023-03-21T00:15:10;35.42;;;14.35;;
52440;SDS011;39611;46.062;8.950;2023-03-21T00:17:38;36.92;;;15.75;;
52440;SDS011;39611;46.062;8.950;2023-03-21T00:20:05;35.08;;;14.32;;
52440;SDS011;39611;46.062;8.950;2023-03-21T00:22:40;37.03;;;15.68;;
52440;SDS011;39611;46.062;8.950;2023-03-21T00:25:07;38.10;;;15.80;;
52440;SDS011;39611;46.062;8.950;2023-03-21T00:27:35;38.90;;;15.98;;
52440;SDS011;39611;46.062;8.950;2023-03-21T00:30:22;33.00;;;14.98;;
52440;SDS011;39611;46.062;8.950;2023-03-21T00:32:49;35.92;;;15.68;;
52440;SDS011;39611;46.062;8.950;2023-03-21T00:35:22;37.70;;;15.55;;
52440;SDS011;39611;46.062;8.950;2023-03-21T00:38:08;35.05;;;14.60;;
52440;SDS011;39611;46.062;8.950;2023-03-21T00:40:35;36.50;;;15.90;;
52440;SDS011;39611;46.062;8.950;2023-03-21T00:43:12;38.58;;;15.07;;
52440;SDS011;39611;46.062;8.950;2023-03-21T00:45:43;34.00;;;14.00;;
52440;SDS011;39611;46.062;8.950;2023-03-21T00:48:10;29.63;;;13.45;;
52440;SDS011;39611;46.062;8.950;2023-03-21T00:50:38;33.50;;;14.75;;
52440;SDS011;39611;46.062;8.950;2023-03-21T00:53:05;35.05;;;14.68;;
52440;SDS011;39611;46.062;8.950;2023-03-21T00:55:32;38.80;;;15.50;;
52440;SDS011;39611;46.062;8.950;2023-03-21T00:57:58;35.15;;;14.60;;
52440;SDS011;39611;46.062;8.950;2023-03-21T01:00:27;35.53;;;15.05;;
52440;SDS011;39611;46.062;8.950;2023-03-21T01:02:55;35.45;;;15.13;;
52440;SDS011;39611;46.062;8.950;2023-03-21T01:05:31;44.20;;;14.65;;
52440;SDS011;39611;46.062;8.950;2023-03-21T01:08:25;29.17;;;14.32;;
52440;SDS011;39611;46.062;8.950;2023-03-21T01:11:04;41.50;;;14.48;;
52440;SDS011;39611;46.062;8.950;2023-03-21T01:13:32;33.28;;;14.85;;
52440;SDS011;39611;46.062;8.950;2023-03-21T01:16:04;38.80;;;14.45;;
52440;SDS011;39611;46.062;8.950;2023-03-21T01:18:32;30.42;;;13.70;;
52440;SDS011;39611;46.062;8.950;2023-03-21T01:21:00;31.80;;;15.93;;
52440;SDS011;39611;46.062;8.950;2023-03-21T01:23:28;38.17;;;14.68;;
52440;SDS011;39611;46.062;8.950;2023-03-21T01:25:55;30.55;;;13.40;;
52440;SDS011;39611;46.062;8.950;2023-03-21T01:28:24;38.17;;;16.00;;
52440;SDS011;39611;46.062;8.950;2023-03-21T01:30:52;36.47;;;13.85;;
52440;SDS011;39611;46.062;8.950;2023-03-21T01:33:19;33.25;;;13.93;;
52440;SDS011;39611;46.062;8.950;2023-03-21T01:35:47;38.33;;;14.80;;
52440;SDS011;39611;46.062;8.950;2023-03-21T01:38:22;35.08;;;15.05;;
52440;SDS011;39611;46.062;8.950;2023-03-21T01:40:49;34.63;;;13.98;;
52440;SDS011;39611;46.062;8.950;2023-03-21T01:43:30;33.88;;;14.77;;
52440;SDS011;39611;46.062;8.950;2023-03-21T01:46:06;32.00;;;13.07;;
52440;SDS011;39611;46.062;8.950;2023-03-21T01:48:35;25.17;;;12.23;;
52440;SDS011;39611;46.062;8.950;2023-03-21T01:51:07;30.15;;;11.43;;
52440;SDS011;39611;46.062;8.950;2023-03-21T01:53:37;27.42;;;11.90;;
52440;SDS011;39611;46.062;8.950;2023-03-21T01:56:08;27.95;;;11.40;;
52440;SDS011;39611;46.062;8.950;2023-03-21T01:58:39;29.98;;;12.75;;
52440;SDS011;39611;46.062;8.950;2023-03-21T02:01:07;30.70;;;11.98;;
52440;SDS011;39611;46.062;8.950;2023-03-21T02:03:34;29.20;;;11.98;;
52440;SDS011;39611;46.062;8.950;2023-03-21T02:06:04;29.38;;;12.40;;
52440;SDS011;39611;46.062;8.950;2023-03-21T02:08:36;32.08;;;11.30;;
52440;SDS011;39611;46.062;8.950;2023-03-21T02:11:05;30.95;;;13.20;;
52440;SDS011;39611;46.062;8.950;2023-03-21T02:13:33;30.02;;;11.77;;
52440;SDS011;39611;46.062;8.950;2023-03-21T02:16:03;28.65;;;12.77;;
52440;SDS011;39611;46.062;8.950;2023-03-21T02:18:55;29.02;;;12.07;;
52440;SDS011;39611;46.062;8.950;2023-03-21T02:22:18;24.33;;;10.75;;
52440;SDS011;39611;46.062;8.950;2023-03-21T02:27:51;33.22;;;12.15;;
52440;SDS011;39611;46.062;8.950;2023-03-21T02:30:40;26.67;;;11.90;;
52440;SDS011;39611;46.062;8.950;2023-03-21T02:44:15;28.38;;;11.82;;
52440;SDS011;39611;46.062;8.950;2023-03-21T02:46:51;25.25;;;10.27;;
52440;SDS011;39611;46.062;8.950;2023-03-21T02:49:46;27.23;;;11.52;;
52440;SDS011;39611;46.062;8.950;2023-03-21T02:52:23;27.13;;;10.80;;
52440;SDS011;39611;46.062;8.950;2023-03-21T02:55:06;22.52;;;10.65;;
52440;SDS011;39611;46.062;8.950;2023-03-21T02:57:40;32.47;;;12.02;;
52440;SDS011;39611;46.062;8.950;2023-03-21T03:00:09;29.75;;;11.63;;
52440;SDS011;39611;46.062;8.950;2023-03-21T03:02:43;25.48;;;11.48;;
52440;SDS011;39611;46.062;8.950;2023-03-21T03:05:14;30.52;;;10.75;;
52440;SDS011;39611;46.062;8.950;2023-03-21T03:08:09;29.42;;;12.32;;
52440;SDS011;39611;46.062;8.950;2023-03-21T03:11:25;28.73;;;11.90;;
52440;SDS011;39611;46.062;8.950;2023-03-21T03:17:12;25.67;;;11.80;;
52440;SDS011;39611;46.062;8.950;2023-03-21T03:19:54;24.05;;;10.75;;
52440;SDS011;39611;46.062;8.950;2023-03-21T03:22:47;25.27;;;10.68;;
52440;SDS011;39611;46.062;8.950;2023-03-21T03:26:04;28.38;;;11.23;;
52440;SDS011;39611;46.062;8.950;2023-03-21T03:28:30;26.27;;;11.00;;
52440;SDS011;39611;46.062;8.950;2023-03-21T03:31:02;32.10;;;11.73;;
52440;SDS011;39611;46.062;8.950;2023-03-21T03:33:35;30.05;;;10.82;;
52440;SDS011;39611;46.062;8.950;2023-03-21T03:36:06;26.13;;;10.95;;
52440;SDS011;39611;46.062;8.950;2023-03-21T03:38:53;30.00;;;11.18;;
52440;SDS011;39611;46.062;8.950;2023-03-21T03:41:22;22.02;;;9.70;;
52440;SDS011;39611;46.062;8.950;2023-03-21T03:43:53;26.98;;;11.68;;
52440;SDS011;39611;46.062;8.950;2023-03-21T03:46:26;23.10;;;10.48;;
52440;SDS011;39611;46.062;8.950;2023-03-21T03:48:59;23.20;;;10.43;;
52440;SDS011;39611;46.062;8.950;2023-03-21T03:51:34;24.42;;;10.15;;
52440;SDS011;39611;46.062;8.950;2023-03-21T03:54:10;19.77;;;7.95;;
52440;SDS011;39611;46.062;8.950;2023-03-21T03:56:39;25.15;;;9.45;;
52440;SDS011;39611;46.062;8.950;2023-03-21T03:59:07;28.55;;;9.68;;
52440;SDS011;39611;46.062;8.950;2023-03-21T04:01:34;22.45;;;9.07;;
52440;SDS011;39611;46.062;8.950;2023-03-21T04:04:00;21.27;;;9.40;;
52440;SDS011;39611;46.062;8.950;2023-03-21T04:06:38;21.42;;;9.18;;
52440;SDS011;39611;46.062;8.950;2023-03-21T04:09:04;22.40;;;9.75;;
52440;SDS011;39611;46.062;8.950;2023-03-21T04:11:45;23.25;;;8.27;;
52440;SDS011;39611;46.062;8.950;2023-03-21T04:14:12;24.50;;;9.23;;
52440;SDS011;39611;46.062;8.950;2023-03-21T04:16:38;22.63;;;9.88;;
52440;SDS011;39611;46.062;8.950;2023-03-21T04:19:05;24.65;;;9.35;;
52440;SDS011;39611;46.062;8.950;2023-03-21T04:21:31;20.90;;;9.00;;
52440;SDS011;39611;46.062;8.950;2023-03-21T04:23:58;20.85;;;9.07;;
52440;SDS011;39611;46.062;8.950;2023-03-21T04:26:24;21.55;;;8.85;;
52440;SDS011;39611;46.062;8.950;2023-03-21T04:28:58;21.55;;;10.07;;
52440;SDS011;39611;46.062;8.950;2023-03-21T04:31:25;20.23;;;9.10;;
52440;SDS011;39611;46.062;8.950;2023-03-21T04:33:56;24.92;;;8.88;;
52440;SDS011;39611;46.062;8.950;2023-03-21T04:36:24;22.73;;;9.15;;
52440;SDS011;39611;46.062;8.950;2023-03-21T04:39:05;22.95;;;9.20;;
52440;SDS011;39611;46.062;8.950;2023-03-21T04:41:44;18.15;;;8.02;;
52440;SDS011;39611;46.062;8.950;2023-03-21T04:44:12;21.80;;;8.13;;
52440;SDS011;39611;46.062;8.950;2023-03-21T04:46:40;21.20;;;9.52;;
52440;SDS011;39611;46.062;8.950;2023-03-21T04:49:07;21.05;;;8.88;;
52440;SDS011;39611;46.062;8.950;2023-03-21T04:51:33;20.20;;;8.43;;
52440;SDS011;39611;46.062;8.950;2023-03-21T04:54:01;19.80;;;8.23;;
52440;SDS011;39611;46.062;8.950;2023-03-21T04:56:28;22.80;;;10.55;;
52440;SDS011;39611;46.062;8.950;2023-03-21T04:59:00;22.80;;;8.63;;
52440;SDS011;39611;46.062;8.950;2023-03-21T05:01:28;18.90;;;8.82;;
52440;SDS011;39611;46.062;8.950;2023-03-21T05:03:59;20.35;;;8.82;;
52440;SDS011;39611;46.062;8.950;2023-03-21T05:06:27;19.58;;;8.75;;
52440;SDS011;39611;46.062;8.950;2023-03-21T05:08:55;25.00;;;9.40;;
52440;SDS011;39611;46.062;8.950;2023-03-21T05:11:26;22.30;;;8.93;;
52440;SDS011;39611;46.062;8.950;2023-03-21T05:13:56;21.95;;;9.45;;
52440;SDS011;39611;46.062;8.950;2023-03-21T05:16:23;23.50;;;9.10;;
52440;SDS011;39611;46.062;8.950;2023-03-21T05:18:52;24.92;;;8.85;;
52440;SDS011;39611;46.062;8.950;2023-03-21T05:21:20;21.45;;;9.60;;
52440;SDS011;39611;46.062;8.950;2023-03-21T05:23:47;24.50;;;9.65;;
52440;SDS011;39611;46.062;8.950;2023-03-21T05:26:19;19.67;;;8.77;;
52440;SDS011;39611;46.062;8.950;2023-03-21T05:28:47;19.15;;;8.52;;
52440;SDS011;39611;46.062;8.950;2023-03-21T05:31:14;22.08;;;9.40;;
52440;SDS011;39611;46.062;8.950;2023-03-21T05:33:43;23.85;;;9.10;;
52440;SDS011;39611;46.062;8.950;2023-03-21T05:36:10;24.67;;;9.95;;
52440;SDS011;39611;46.062;8.950;2023-03-21T05:38:37;20.98;;;8.98;;
52440;SDS011;39611;46.062;8.950;2023-03-21T05:41:07;22.63;;;8.52;;
52440;SDS011;39611;46.062;8.950;2023-03-21T05:43:34;25.88;;;10.38;;
52440;SDS011;39611;46.062;8.950;2023-03-21T05:46:01;22.58;;;10.35;;
52440;SDS011;39611;46.062;8.950;2023-03-21T05:48:27;25.15;;;9.93;;
52440;SDS011;39611;46.062;8.950;2023-03-21T05:50:54;23.95;;;10.95;;
52440;SDS011;39611;46.062;8.950;2023-03-21T05:53:20;24.48;;;10.25;;
52440;SDS011;39611;46.062;8.950;2023-03-21T05:55:48;24.92;;;9.75;;
52440;SDS011;39611;46.062;8.950;2023-03-21T05:58:14;17.42;;;8.63;;
52440;SDS011;39611;46.062;8.950;2023-03-21T06:00:41;29.25;;;9.73;;
52440;SDS011;39611;46.062;8.950;2023-03-21T06:03:07;23.23;;;9.68;;
52440;SDS011;39611;46.062;8.950;2023-03-21T06:05:34;21.02;;;9.07;;
52440;SDS011;39611;46.062;8.950;2023-03-21T06:08:01;21.38;;;8.93;;
52440;SDS011;39611;46.062;8.950;2023-03-21T06:10:27;22.05;;;9.65;;
52440;SDS011;39611;46.062;8.950;2023-03-21T06:12:54;19.70;;;8.27;;
52440;SDS011;39611;46.062;8.950;2023-03-21T06:15:20;27.02;;;8.90;;
52440;SDS011;39611;46.062;8.950;2023-03-21T06:17:47;22.45;;;9.10;;
52440;SDS011;39611;46.062;8.950;2023-03-21T06:20:13;20.35;;;8.32;;
52440;SDS011;39611;46.062;8.950;2023-03-21T06:22:40;22.40;;;8.98;;
52440;SDS011;39611;46.062;8.950;2023-03-21T06:25:07;22.40;;;9.85;;
52440;SDS011;39611;46.062;8.950;2023-03-21T06:27:34;20.98;;;9.38;;
52440;SDS011;39611;46.062;8.950;2023-03-21T06:30:02;27.65;;;10.32;;
52440;SDS011;39611;46.062;8.950;2023-03-21T06:32:29;19.00;;;8.02;;
52440;SDS011;39611;46.062;8.950;2023-03-21T06:34:56;20.10;;;8.15;;
52440;SDS011;39611;46.062;8.950;2023-03-21T06:37:23;20.77;;;9.20;;
52440;SDS011;39611;46.062;8.950;2023-03-21T06:39:49;24.05;;;8.27;;
52440;SDS011;39611;46.062;8.950;2023-03-21T06:42:16;23.63;;;9.75;;
52440;SDS011;39611;46.062;8.950;2023-03-21T06:44:42;21.10;;;8.70;;
52440;SDS011;39611;46.062;8.950;2023-03-21T06:47:08;26.35;;;9.00;;
52440;SDS011;39611;46.062;8.950;2023-03-21T06:49:35;22.25;;;8.48;;
52440;SDS011;39611;46.062;8.950;2023-03-21T06:52:01;21.92;;;8.25;;
52440;SDS011;39611;46.062;8.950;2023-03-21T06:54:28;22.25;;;9.18;;
52440;SDS011;39611;46.062;8.950;2023-03-21T06:56:54;20.85;;;8.98;;
52440;SDS011;39611;46.062;8.950;2023-03-21T06:59:21;19.25;;;9.10;;
52440;SDS011;39611;46.062;8.950;2023-03-21T07:01:48;20.42;;;9.63;;
52440;SDS011;39611;46.062;8.950;2023-03-21T07:04:14;15.45;;;8.05;;
52440;SDS011;39611;46.062;8.950;2023-03-21T07:06:41;21.33;;;8.75;;
52440;SDS011;39611;46.062;8.950;2023-03-21T07:09:07;21.10;;;8.25;;
52440;SDS011;39611;46.062;8.950;2023-03-21T07:11:34;20.60;;;8.50;;
52440;SDS011;39611;46.062;8.950;2023-03-21T07:14:02;20.35;;;9.02;;
52440;SDS011;39611;46.062;8.950;2023-03-21T07:16:29;23.10;;;9.55;;
52440;SDS011;39611;46.062;8.950;2023-03-21T07:18:56;18.27;;;7.82;;
52440;SDS011;39611;46.062;8.950;2023-03-21T07:21:22;18.63;;;8.88;;
52440;SDS011;39611;46.062;8.950;2023-03-21T07:23:48;23.30;;;8.98;;
52440;SDS011;39611;46.062;8.950;2023-03-21T07:26:15;19.00;;;8.48;;
52440;SDS011;39611;46.062;8.950;2023-03-21T07:28:43;18.70;;;9.00;;
52440;SDS011;39611;46.062;8.950;2023-03-21T07:31:11;21.60;;;9.70;;
52440;SDS011;39611;46.062;8.950;2023-03-21T07:33:39;22.95;;;8.77;;
52440;SDS011;39611;46.062;8.950;2023-03-21T07:36:08;20.15;;;9.25;;
52440;SDS011;39611;46.062;8.950;2023-03-21T07:38:37;20.92;;;9.48;;
52440;SDS011;39611;46.062;8.950;2023-03-21T07:41:06;20.30;;;8.68;;
52440;SDS011;39611;46.062;8.950;2023-03-21T07:43:33;20.65;;;8.88;;
52440;SDS011;39611;46.062;8.950;2023-03-21T07:46:02;23.70;;;10.63;;
52440;SDS011;39611;46.062;8.950;2023-03-21T07:48:29;18.80;;;8.15;;
52440;SDS011;39611;46.062;8.950;2023-03-21T07:50:56;16.33;;;7.65;;
52440;SDS011;39611;46.062;8.950;2023-03-21T07:53:22;17.58;;;8.48;;
52440;SDS011;39611;46.062;8.950;2023-03-21T07:55:52;23.13;;;8.63;;
52440;SDS011;39611;46.062;8.950;2023-03-21T07:58:22;18.98;;;8.43;;
52440;SDS011;39611;46.062;8.950;2023-03-21T08:00:51;18.27;;;8.88;;
52440;SDS011;39611;46.062;8.950;2023-03-21T08:03:18;22.17;;;8.38;;
52440;SDS011;39611;46.062;8.950;2023-03-21T08:05:44;21.30;;;10.15;;
52440;SDS011;39611;46.062;8.950;2023-03-21T08:08:11;63.88;;;23.60;;
52440;SDS011;39611;46.062;8.950;2023-03-21T08:10:38;30.92;;;13.02;;
52440;SDS011;39611;46.062;8.950;2023-03-21T08:13:06;22.73;;;8.73;;
52440;SDS011;39611;46.062;8.950;2023-03-21T08:15:33;18.73;;;9.50;;
52440;SDS011;39611;46.062;8.950;2023-03-21T08:17:59;26.98;;;11.32;;
52440;SDS011;39611;46.062;8.950;2023-03-21T08:20:26;27.38;;;11.27;;
52440;SDS011;39611;46.062;8.950;2023-03-21T08:22:52;25.52;;;10.68;;
52440;SDS011;39611;46.062;8.950;2023-03-21T08:25:20;22.67;;;11.00;;
52440;SDS011;39611;46.062;8.950;2023-03-21T08:27:47;27.67;;;10.35;;
52440;SDS011;39611;46.062;8.950;2023-03-21T08:30:16;24.27;;;9.30;;
52440;SDS011;39611;46.062;8.950;2023-03-21T08:32:47;21.17;;;9.90;;
52440;SDS011;39611;46.062;8.950;2023-03-21T08:35:15;22.00;;;9.60;;
52440;SDS011;39611;46.062;8.950;2023-03-21T08:37:43;27.27;;;11.18;;
52440;SDS011;39611;46.062;8.950;2023-03-21T08:40:11;27.27;;;11.07;;
52440;SDS011;39611;46.062;8.950;2023-03-21T08:42:41;29.63;;;12.38;;
52440;SDS011;39611;46.062;8.950;2023-03-21T08:45:08;26.45;;;12.38;;
52440;SDS011;39611;46.062;8.950;2023-03-21T08:47:36;23.90;;;11.15;;
52440;SDS011;39611;46.062;8.950;2023-03-21T08:50:03;28.52;;;11.98;;
52440;SDS011;39611;46.062;8.950;2023-03-21T08:52:31;27.50;;;11.70;;
52440;SDS011;39611;46.062;8.950;2023-03-21T08:54:58;27.13;;;11.23;;
52440;SDS011;39611;46.062;8.950;2023-03-21T08:57:25;24.83;;;11.75;;
52440;SDS011;39611;46.062;8.950;2023-03-21T08:59:51;25.25;;;12.73;;
52440;SDS011;39611;46.062;8.950;2023-03-21T09:02:18;29.90;;;12.63;;
52440;SDS011;39611;46.062;8.950;2023-03-21T09:04:44;23.23;;;11.48;;
52440;SDS011;39611;46.062;8.950;2023-03-21T09:07:11;30.10;;;13.82;;
52440;SDS011;39611;46.062;8.950;2023-03-21T09:09:42;29.20;;;12.25;;
52440;SDS011;39611;46.062;8.950;2023-03-21T09:12:10;28.38;;;12.65;;
52440;SDS011;39611;46.062;8.950;2023-03-21T09:14:37;29.67;;;13.57;;
52440;SDS011;39611;46.062;8.950;2023-03-21T09:17:03;28.10;;;12.65;;
52440;SDS011;39611;46.062;8.950;2023-03-21T09:19:30;24.08;;;11.63;;
52440;SDS011;39611;46.062;8.950;2023-03-21T09:21:57;23.70;;;11.30;;
52440;SDS011;39611;46.062;8.950;2023-03-21T09:24:23;26.85;;;10.88;;
52440;SDS011;39611;46.062;8.950;2023-03-21T09:26:51;27.23;;;10.88;;
52440;SDS011;39611;46.062;8.950;2023-03-21T09:29:18;27.83;;;11.48;;
52440;SDS011;39611;46.062;8.950;2023-03-21T09:31:46;24.23;;;9.93;;
52440;SDS011;39611;46.062;8.950;2023-03-21T09:34:13;24.88;;;12.02;;
52440;SDS011;39611;46.062;8.950;2023-03-21T09:36:40;23.83;;;10.77;;
52440;SDS011;39611;46.062;8.950;2023-03-21T09:39:09;29.65;;;11.75;;
52440;SDS011;39611;46.062;8.950;2023-03-21T09:49:52;117.90;;;40.85;;
52440;SDS011;39611;46.062;8.950;2023-03-21T09:52:45;61.55;;;24.83;;
52440;SDS011;39611;46.062;8.950;2023-03-21T09:55:17;27.73;;;12.10;;
52440;SDS011;39611;46.062;8.950;2023-03-21T09:57:49;19.63;;;9.70;;
52440;SDS011;39611;46.062;8.950;2023-03-21T10:00:25;20.25;;;8.73;;
52440;SDS011;39611;46.062;8.950;2023-03-21T10:02:58;22.35;;;9.80;;
52440;SDS011;39611;46.062;8.950;2023-03-21T10:05:29;26.02;;;10.90;;
52440;SDS011;39611;46.062;8.950;2023-03-21T10:07:59;21.60;;;9.02;;
52440;SDS011;39611;46.062;8.950;2023-03-21T10:10:53;22.10;;;10.02;;
52440;SDS011;39611;46.062;8.950;2023-03-21T10:13:33;23.35;;;9.95;;
52440;SDS011;39611;46.062;8.950;2023-03-21T10:16:20;21.60;;;9.43;;
52440;SDS011;39611;46.062;8.950;2023-03-21T10:19:09;22.30;;;9.15;;
52440;SDS011;39611;46.062;8.950;2023-03-21T10:21:39;22.27;;;9.35;;
52440;SDS011;39611;46.062;8.950;2023-03-21T10:24:30;18.80;;;9.00;;
52440;SDS011;39611;46.062;8.950;2023-03-21T10:26:58;21.60;;;9.00;;
52440;SDS011;39611;46.062;8.950;2023-03-21T10:29:29;17.15;;;8.00;;
52440;SDS011;39611;46.062;8.950;2023-03-21T10:32:09;20.63;;;8.30;;
52440;SDS011;39611;46.062;8.950;2023-03-21T10:34:43;17.10;;;7.90;;
52440;SDS011;39611;46.062;8.950;2023-03-21T10:37:13;24.67;;;8.70;;
52440;SDS011;39611;46.062;8.950;2023-03-21T10:39:42;16.15;;;7.90;;
52440;SDS011;39611;46.062;8.950;2023-03-21T10:42:17;18.15;;;7.88;;
52440;SDS011;39611;46.062;8.950;2023-03-21T10:44:47;21.67;;;9.85;;
52440;SDS011;39611;46.062;8.950;2023-03-21T10:47:24;22.50;;;9.32;;
52440;SDS011;39611;46.062;8.950;2023-03-21T10:49:53;23.17;;;9.55;;
52440;SDS011;39611;46.062;8.950;2023-03-21T10:52:37;20.65;;;8.20;;
52440;SDS011;39611;46.062;8.950;2023-03-21T10:55:24;20.20;;;9.77;;
52440;SDS011;39611;46.062;8.950;2023-03-21T10:57:55;19.08;;;8.52;;
52440;SDS011;39611;46.062;8.950;2023-03-21T11:00:27;21.38;;;8.70;;
52440;SDS011;39611;46.062;8.950;2023-03-21T11:02:59;20.27;;;8.98;;
52440;SDS011;39611;46.062;8.950;2023-03-21T11:05:32;20.15;;;8.93;;
52440;SDS011;39611;46.062;8.950;2023-03-21T11:08:05;22.70;;;8.98;;
52440;SDS011;39611;46.062;8.950;2023-03-21T11:10:46;17.50;;;8.30;;
52440;SDS011;39611;46.062;8.950;2023-03-21T11:13:32;19.55;;;8.38;;
52440;SDS011;39611;46.062;8.950;2023-03-21T11:18:42;20.80;;;9.68;;
52440;SDS011;39611;46.062;8.950;2023-03-21T11:21:11;16.38;;;7.93;;
52440;SDS011;39611;46.062;8.950;2023-03-21T11:23:41;19.23;;;7.85;;
52440;SDS011;39611;46.062;8.950;2023-03-21T11:26:18;19.05;;;7.90;;
52440;SDS011;39611;46.062;8.950;2023-03-21T11:28:51;18.50;;;8.50;;
52440;SDS011;39611;46.062;8.950;2023-03-21T11:31:18;17.67;;;7.97;;
52440;SDS011;39611;46.062;8.950;2023-03-21T11:33:55;17.73;;;8.75;;
52440;SDS011;39611;46.062;8.950;2023-03-21T11:36:25;17.30;;;7.40;;
52440;SDS011;39611;46.062;8.950;2023-03-21T11:39:02;16.75;;;8.00;;
52440;SDS011;39611;46.062;8.950;2023-03-21T11:41:39;19.65;;;8.25;;
52440;SDS011;39611;46.062;8.950;2023-03-21T11:44:22;17.95;;;8.23;;
52440;SDS011;39611;46.062;8.950;2023-03-21T11:46:54;16.90;;;9.10;;
52440;SDS011;39611;46.062;8.950;2023-03-21T11:49:20;16.90;;;7.93;;
52440;SDS011;39611;46.062;8.950;2023-03-21T11:51:53;14.90;;;7.38;;
52440;SDS011;39611;46.062;8.950;2023-03-21T11:57:28;18.77;;;7.45;;
52440;SDS011;39611;46.062;8.950;2023-03-21T12:00:14;18.50;;;7.85;;
52440;SDS011;39611;46.062;8.950;2023-03-21T12:05:33;12.05;;;6.00;;
52440;SDS011;39611;46.062;8.950;2023-03-21T12:23:00;15.15;;;7.35;;
52440;SDS011;39611;46.062;8.950;2023-03-21T12:25:30;14.75;;;7.32;;
52440;SDS011;39611;46.062;8.950;2023-03-21T12:30:50;16.25;;;7.07;;
52440;SDS011;39611;46.062;8.950;2023-03-21T12:44:38;19.45;;;8.27;;
52440;SDS011;39611;46.062;8.950;2023-03-21T12:47:12;16.48;;;7.63;;
52440;SDS011;39611;46.062;8.950;2023-03-21T12:49:43;15.50;;;7.80;;
52440;SDS011;39611;46.062;8.950;2023-03-21T12:52:21;17.92;;;8.18;;
52440;SDS011;39611;46.062;8.950;2023-03-21T12:54:54;15.68;;;7.95;;
52440;SDS011;39611;46.062;8.950;2023-03-21T12:57:32;15.85;;;6.95;;
52440;SDS011;39611;46.062;8.950;2023-03-21T13:05:55;19.77;;;8.32;;
52440;SDS011;39611;46.062;8.950;2023-03-21T13:08:25;15.23;;;7.70;;
52440;SDS011;39611;46.062;8.950;2023-03-21T13:10:55;14.02;;;7.28;;
52440;SDS011;39611;46.062;8.950;2023-03-21T13:13:37;15.52;;;7.00;;
52440;SDS011;39611;46.062;8.950;2023-03-21T13:21:53;15.18;;;7.53;;
52440;SDS011;39611;46.062;8.950;2023-03-21T13:24:32;17.05;;;8.30;;
52440;SDS011;39611;46.062;8.950;2023-03-21T13:27:12;21.52;;;7.72;;
52440;SDS011;39611;46.062;8.950;2023-03-21T13:33:04;18.85;;;7.60;;
52440;SDS011;39611;46.062;8.950;2023-03-21T13:35:36;14.60;;;6.80;;
52440;SDS011;39611;46.062;8.950;2023-03-21T13:40:51;16.10;;;7.38;;
52440;SDS011;39611;46.062;8.950;2023-03-21T13:46:10;17.48;;;6.90;;
52440;SDS011;39611;46.062;8.950;2023-03-21T14:00:12;14.20;;;6.15;;
52440;SDS011;39611;46.062;8.950;2023-03-21T14:04:56;17.55;;;6.60;;
52440;SDS011;39611;46.062;8.950;2023-03-21T14:07:50;18.00;;;7.00;;
52440;SDS011;39611;46.062;8.950;2023-03-21T14:10:37;13.88;;;6.03;;
52440;SDS011;39611;46.062;8.950;2023-03-21T14:13:07;12.50;;;5.70;;
52440;SDS011;39611;46.062;8.950;2023-03-21T14:15:39;11.45;;;5.95;;
52440;SDS011;39611;46.062;8.950;2023-03-21T14:18:21;13.52;;;5.93;;
52440;SDS011;39611;46.062;8.950;2023-03-21T14:21:45;12.25;;;6.05;;
52440;SDS011;39611;46.062;8.950;2023-03-21T14:24:06;11.45;;;6.10;;
52440;SDS011;39611;46.062;8.950;2023-03-21T14:26:40;12.15;;;6.15;;
52440;SDS011;39611;46.062;8.950;2023-03-21T14:29:12;15.30;;;6.70;;
52440;SDS011;39611;46.062;8.950;2023-03-21T14:31:52;14.23;;;5.97;;
52440;SDS011;39611;46.062;8.950;2023-03-21T14:34:21;21.17;;;8.88;;
52440;SDS011;39611;46.062;8.950;2023-03-21T14:36:49;49.40;;;20.67;;
52440;SDS011;39611;46.062;8.950;2023-03-21T14:39:27;17.42;;;6.32;;
52440;SDS011;39611;46.062;8.950;2023-03-21T14:42:00;13.48;;;6.32;;
52440;SDS011;39611;46.062;8.950;2023-03-21T14:47:20;14.95;;;6.00;;
52440;SDS011;39611;46.062;8.950;2023-03-21T14:49:52;10.18;;;5.45;;
52440;SDS011;39611;46.062;8.950;2023-03-21T14:52:22;11.38;;;5.90;;
52440;SDS011;39611;46.062;8.950;2023-03-21T14:54:49;14.27;;;6.22;;
52440;SDS011;39611;46.062;8.950;2023-03-21T14:57:18;15.30;;;5.80;;
52440;SDS011;39611;46.062;8.950;2023-03-21T14:59:49;12.73;;;6.38;;
52440;SDS011;39611;46.062;8.950;2023-03-21T15:02:22;13.68;;;5.50;;
52440;SDS011;39611;46.062;8.950;2023-03-21T15:04:56;10.63;;;5.55;;
52440;SDS011;39611;46.062;8.950;2023-03-21T15:07:26;13.85;;;5.47;;
52440;SDS011;39611;46.062;8.950;2023-03-21T15:09:55;11.80;;;5.47;;
52440;SDS011;39611;46.062;8.950;2023-03-21T15:12:23;11.50;;;5.07;;
52440;SDS011;39611;46.062;8.950;2023-03-21T15:14:50;18.30;;;6.63;;
52440;SDS011;39611;46.062;8.950;2023-03-21T15:17:17;12.95;;;5.82;;
52440;SDS011;39611;46.062;8.950;2023-03-21T15:19:44;11.15;;;5.20;;
52440;SDS011;39611;46.062;8.950;2023-03-21T15:24:46;15.32;;;6.18;;
52440;SDS011;39611;46.062;8.950;2023-03-21T15:27:18;14.30;;;5.85;;
52440;SDS011;39611;46.062;8.950;2023-03-21T15:29:49;12.93;;;5.68;;
52440;SDS011;39611;46.062;8.950;2023-03-21T15:32:23;14.18;;;5.05;;
52440;SDS011;39611;46.062;8.950;2023-03-21T15:34:55;13.57;;;6.32;;
52440;SDS011;39611;46.062;8.950;2023-03-21T15:37:35;14.23;;;5.93;;
52440;SDS011;39611;46.062;8.950;2023-03-21T15:40:07;13.50;;;5.55;;
52440;SDS011;39611;46.062;8.950;2023-03-21T15:42:48;9.43;;;4.85;;
52440;SDS011;39611;46.062;8.950;2023-03-21T15:45:22;12.82;;;5.55;;
52440;SDS011;39611;46.062;8.950;2023-03-21T15:47:52;11.88;;;5.70;;
52440;SDS011;39611;46.062;8.950;2023-03-21T15:52:48;9.50;;;5.28;;
52440;SDS011;39611;46.062;8.950;2023-03-21T15:55:16;13.48;;;5.22;;
52440;SDS011;39611;46.062;8.950;2023-03-21T15:57:51;11.15;;;5.15;;
52440;SDS011;39611;46.062;8.950;2023-03-21T16:02:52;16.27;;;5.60;;
52440;SDS011;39611;46.062;8.950;2023-03-21T16:05:24;12.90;;;5.63;;
52440;SDS011;39611;46.062;8.950;2023-03-21T16:07:51;10.05;;;4.57;;
52440;SDS011;39611;46.062;8.950;2023-03-21T16:10:25;12.00;;;4.53;;
52440;SDS011;39611;46.062;8.950;2023-03-21T16:12:56;11.38;;;4.45;;
52440;SDS011;39611;46.062;8.950;2023-03-21T16:15:24;13.07;;;5.78;;
52440;SDS011;39611;46.062;8.950;2023-03-21T16:17:55;9.43;;;5.15;;
52440;SDS011;39611;46.062;8.950;2023-03-21T16:20:27;11.70;;;5.13;;
52440;SDS011;39611;46.062;8.950;2023-03-21T16:23:02;9.23;;;5.30;;
52440;SDS011;39611;46.062;8.950;2023-03-21T16:25:29;9.55;;;5.05;;
52440;SDS011;39611;46.062;8.950;2023-03-21T16:27:57;9.10;;;4.43;;
52440;SDS011;39611;46.062;8.950;2023-03-21T16:30:24;10.82;;;4.43;;
52440;SDS011;39611;46.062;8.950;2023-03-21T16:32:51;12.32;;;5.57;;
52440;SDS011;39611;46.062;8.950;2023-03-21T16:35:18;7.78;;;3.85;;
52440;SDS011;39611;46.062;8.950;2023-03-21T16:37:48;12.63;;;6.30;;
52440;SDS011;39611;46.062;8.950;2023-03-21T16:40:16;8.32;;;4.78;;
52440;SDS011;39611;46.062;8.950;2023-03-21T16:42:51;10.52;;;5.40;;